Terminal Aerodrome Forecast
Issued by NWS

Home | Current Version | Previous Version | Text Only | Print | Product List | Glossary On
Versions: 1 2 3 4 5 6 7 8 9 10 11 12 13 14 15 16 17 18 19 20 21 22 23 24
000
FTUS43 KGRB 250739 AAA
TAFRHI
TAF AMD
KRHI 250739Z 2508/2606 29009G15KT P6SM SCT025 BKN040
      TEMPO 2508/2512 BKN025
     FM251200 30010G18KT P6SM BKN025
     FM252000 30008KT P6SM SCT030=

USA.gov is the U.S. government's official web portal to all federal, state and local government web resources and services.